Time;durP1;ratioP1;P1;durP2;ratioP2;P2;SDS_P1;SDS_P2;PMS_P1;PMS_P2;Temp;Humidity;BMP_temperature;BMP_pressure;BME280_temperature;BME280_humidity;BME280_pressure;Samples;Min_cycle;Max_cycle;Signal;HPM_P1;HPM_P2
2022/11/19 00:01:12;;;;;;;4.72;1.30;;;;;;;9.70;95.47;97226.22;5089385;23;20307;-86
2022/11/19 00:03:17;;;;;;;1.60;1.05;;;;;;;9.71;95.52;97226.09;5113298;23;20187;-85
2022/11/19 00:05:20;;;;;;;1.67;1.30;;;;;;;9.75;95.30;97231.88;5089093;23;20180;-86
2022/11/19 00:07:24;;;;;;;2.53;1.30;;;;;;;9.78;95.38;97229.03;5113897;23;20575;-85
2022/11/19 00:09:28;;;;;;;3.35;1.23;;;;;;;9.79;95.68;97228.91;5114414;23;21174;-85
2022/11/19 00:13:51;;;;;;;1.38;0.90;;;;;;;9.82;95.65;97222.63;5114393;23;20602;-85
2022/11/19 00:15:55;;;;;;;2.50;1.00;;;;;;;9.81;95.47;97220.97;5090131;23;20230;-86
2022/11/19 00:17:58;;;;;;;1.55;1.05;;;;;;;9.82;95.30;97220.00;5089872;23;20172;-86
2022/11/19 00:20:01;;;;;;;1.90;1.20;;;;;;;9.81;94.92;97218.38;5114344;23;20205;-86
2022/11/19 00:22:04;;;;;;;1.17;1.00;;;;;;;9.77;94.94;97222.16;5113632;23;20501;-85
2022/11/19 00:24:09;;;;;;;2.55;1.02;;;;;;;9.76;95.76;97221.34;5088825;23;20634;-85
2022/11/19 00:26:13;;;;;;;1.43;0.80;;;;;;;9.75;95.47;97217.06;5089057;23;20203;-85
2022/11/19 00:28:16;;;;;;;1.90;1.00;;;;;;;9.72;96.32;97216.50;5089312;23;20574;-85
2022/11/19 00:30:20;;;;;;;1.30;0.90;;;;;;;9.66;95.46;97211.78;5089011;23;21130;-86
2022/11/19 00:32:43;;;;;;;2.10;0.90;;;;;;;9.63;95.40;97209.41;5138715;23;20903;-86
2022/11/19 00:34:46;;;;;;;1.90;0.90;;;;;;;9.63;95.88;97212.81;5113913;23;20606;-85
2022/11/19 00:36:49;;;;;;;1.30;0.80;;;;;;;9.67;96.42;97216.84;5115298;23;20576;-85
2022/11/19 00:38:52;;;;;;;1.35;0.90;;;;;;;9.67;96.13;97219.47;5115381;23;20206;-85
2022/11/19 00:40:57;;;;;;;1.70;1.10;;;;;;;9.68;95.82;97213.31;5088729;23;20616;-85
2022/11/19 00:45:20;;;;;;;3.55;1.10;;;;;;;9.70;96.18;97216.63;5089374;23;20687;-86
2022/11/19 00:47:23;;;;;;;1.87;1.23;;;;;;;9.67;96.20;97218.66;5089291;23;20176;-85
2022/11/19 00:49:26;;;;;;;2.70;1.35;;;;;;;9.64;95.99;97216.28;5089639;23;20577;-85
2022/11/19 00:51:30;;;;;;;2.37;1.13;;;;;;;9.60;95.79;97212.25;5088996;23;20179;-86
2022/11/19 00:53:33;;;;;;;4.32;1.40;;;;;;;9.52;95.68;97206.81;5088851;23;20618;-85
2022/11/19 00:55:37;;;;;;;1.80;1.20;;;;;;;9.50;95.99;97206.94;5089426;23;20628;-85
2022/11/19 00:57:44;;;;;;;1.80;1.40;;;;;;;9.52;97.23;97205.03;5089054;23;20582;-85
2022/11/19 00:59:47;;;;;;;2.70;1.30;;;;;;;9.57;97.19;97209.88;5113793;23;20598;-85
2022/11/19 01:01:50;;;;;;;1.83;1.35;;;;;;;9.57;97.29;97210.69;5113677;23;20624;-85
2022/11/19 01:03:54;;;;;;;1.60;1.00;;;;;;;9.58;97.08;97214.16;5089758;23;20607;-85
2022/11/19 01:05:57;;;;;;;3.08;1.63;;;;;;;9.57;97.22;97204.69;5115890;23;20577;-86
2022/11/19 01:08:00;;;;;;;3.20;1.60;;;;;;;9.57;97.12;97205.50;5091112;23;20184;-85
2022/11/19 01:10:04;;;;;;;1.50;1.20;;;;;;;9.55;97.37;97204.81;5091310;23;20598;-85
2022/11/19 01:12:07;;;;;;;1.90;1.20;;;;;;;9.56;97.62;97206.47;5115505;23;20584;-86
2022/11/19 01:14:10;;;;;;;1.95;1.50;;;;;;;9.58;97.56;97203.75;5090887;23;20237;-85
2022/11/19 01:16:15;;;;;;;3.58;1.80;;;;;;;9.57;97.31;97210.69;5091270;23;20179;-85
2022/11/19 01:18:19;;;;;;;2.33;1.55;;;;;;;9.57;97.65;97221.13;5115702;23;20511;-85
2022/11/19 01:20:22;;;;;;;1.60;1.50;;;;;;;9.59;97.74;97221.00;5115898;23;20202;-86
2022/11/19 01:22:25;;;;;;;1.73;1.30;;;;;;;9.60;97.68;97222.66;5114812;23;20617;-85
2022/11/19 01:24:28;;;;;;;2.27;1.20;;;;;;;9.59;97.57;97228.81;5090458;23;20571;-86
2022/11/19 01:26:31;;;;;;;1.63;1.30;;;;;;;9.59;97.99;97226.19;5090337;23;20668;-85
2022/11/19 01:28:34;;;;;;;2.13;1.55;;;;;;;9.62;98.36;97216.41;5115236;23;21215;-85
2022/11/19 01:30:41;;;;;;;2.92;1.50;;;;;;;9.63;99.04;97222.41;5114923;23;20591;-86
2022/11/19 01:32:44;;;;;;;2.28;1.30;;;;;;;9.65;98.88;97218.75;5116309;23;20205;-86
2022/11/19 01:34:48;;;;;;;3.47;1.60;;;;;;;9.64;99.13;97218.88;5114877;23;20204;-85
2022/11/19 01:36:51;;;;;;;2.60;1.50;;;;;;;9.66;98.82;97222.19;5090475;23;20267;-85
2022/11/19 01:38:55;;;;;;;1.83;1.40;;;;;;;9.67;99.10;97223.84;5115196;23;20185;-85
2022/11/19 01:40:58;;;;;;;1.70;1.45;;;;;;;9.68;99.08;97225.47;5114488;23;20836;-85
2022/11/19 01:43:01;;;;;;;2.50;1.40;;;;;;;9.69;99.47;97222.75;5090289;23;20207;-85
2022/11/19 01:45:07;;;;;;;1.92;1.50;;;;;;;9.70;99.58;97221.81;5114924;23;20197;-85
2022/11/19 01:47:11;;;;;;;3.75;1.45;;;;;;;9.71;99.15;97225.25;5090271;23;20184;-85
2022/11/19 01:49:17;;;;;;;2.10;1.40;;;;;;;9.72;98.95;97226.91;5090615;23;20190;-85
2022/11/19 01:51:23;;;;;;;1.90;1.50;;;;;;;9.73;99.08;97221.59;5114595;23;20578;-86
2022/11/19 01:53:28;;;;;;;1.90;1.55;;;;;;;9.74;99.25;97225.84;5089939;23;20171;-85
2022/11/19 01:55:31;;;;;;;2.70;1.42;;;;;;;9.73;98.76;97221.59;5090320;23;20226;-85
2022/11/19 01:57:35;;;;;;;3.40;1.30;;;;;;;9.75;99.25;97224.06;5090312;23;20654;-85
2022/11/19 01:59:38;;;;;;;2.73;1.60;;;;;;;9.74;99.31;97225.00;5115239;23;20189;-85
2022/11/19 02:01:43;;;;;;;3.20;2.70;;;;;;;9.73;98.97;97228.56;5090197;23;20634;-85
2022/11/19 02:03:48;;;;;;;3.70;2.13;;;;;;;9.74;98.94;97225.00;5115875;23;21028;-86
2022/11/19 02:05:51;;;;;;;4.30;3.10;;;;;;;9.74;98.78;97235.41;5114639;23;20593;-86
2022/11/19 02:07:56;;;;;;;2.88;2.05;;;;;;;9.76;98.89;97238.72;5090246;23;20585;-85
2022/11/19 02:10:00;;;;;;;3.40;1.90;;;;;;;9.77;99.37;97227.38;5090354;23;20175;-85
2022/11/19 02:12:14;;;;;;;3.47;1.80;;;;;;;9.78;98.74;97232.44;5089497;23;20195;-86
2022/11/19 02:14:28;;;;;;;3.40;1.67;;;;;;;9.79;99.39;97235.88;5089806;23;20192;-85
2022/11/19 02:16:34;;;;;;;1.70;1.40;;;;;;;9.78;98.83;97235.06;5090362;23;20563;-86
2022/11/19 02:18:44;;;;;;;2.50;1.90;;;;;;;9.78;99.13;97239.44;5115158;23;20624;-86
2022/11/19 02:20:55;;;;;;;4.30;2.33;;;;;;;9.78;98.76;97234.25;5114786;23;20269;-86
2022/11/19 02:23:30;;;;;;;3.30;2.37;;;;;;;9.77;98.55;97235.19;5114843;23;20181;-86
2022/11/19 02:25:46;;;;;;;2.80;2.00;;;;;;;9.77;98.47;97235.19;5073604;23;20605;-86
2022/11/19 02:28:04;;;;;;;2.73;2.30;;;;;;;9.77;98.74;97230.78;5090478;23;20179;-85
2022/11/19 02:30:11;;;;;;;3.10;2.35;;;;;;;9.79;98.77;97238.47;5114597;23;20681;-86
2022/11/19 02:32:16;;;;;;;2.90;1.80;;;;;;;9.78;98.72;97242.03;5115180;23;20206;-85
2022/11/19 02:34:23;;;;;;;4.00;2.50;;;;;;;9.79;98.34;97238.47;5114388;23;20632;-85
2022/11/19 02:36:28;;;;;;;5.80;2.30;;;;;;;9.80;98.66;97234.94;5116223;23;20167;-86
2022/11/19 02:38:38;;;;;;;3.50;2.23;;;;;;;9.80;98.32;97229.72;5116292;23;20170;-85
2022/11/19 02:40:44;;;;;;;3.10;2.40;;;;;;;9.76;98.04;97239.56;5114115;23;20586;-86
2022/11/19 02:42:53;;;;;;;4.40;2.15;;;;;;;9.74;97.54;97236.25;5089618;23;20579;-85
2022/11/19 02:44:59;;;;;;;2.72;2.00;;;;;;;9.75;98.59;97244.91;5116659;23;20221;-85
2022/11/19 02:47:10;;;;;;;3.43;2.03;;;;;;;9.76;98.01;97243.91;5089880;23;20226;-85
2022/11/19 02:49:14;;;;;;;3.37;2.00;;;;;;;9.78;98.40;97245.47;5090203;23;20952;-86
2022/11/19 02:51:18;;;;;;;3.70;2.60;;;;;;;9.79;98.85;97238.47;5090440;23;20630;-85
2022/11/19 02:53:21;;;;;;;3.53;2.80;;;;;;;9.78;98.60;97237.66;5114157;23;20214;-85
2022/11/19 02:55:25;;;;;;;3.97;2.90;;;;;;;9.79;98.06;97246.28;5089704;23;20599;-85
2022/11/19 02:57:28;;;;;;;6.30;4.50;;;;;;;9.78;98.42;97248.06;5089843;23;20579;-85
2022/11/19 03:04:32;;;;;;;6.70;3.27;;;;;;;9.74;98.34;97249.28;5089665;23;20802;-85
2022/11/19 03:06:35;;;;;;;4.75;3.22;;;;;;;9.77;98.91;97245.59;5114213;23;20661;-85
2022/11/19 03:08:38;;;;;;;4.00;3.60;;;;;;;9.77;99.10;97256.00;5139714;23;20237;-85
2022/11/19 03:10:46;;;;;;;3.47;2.55;;;;;;;9.78;98.23;97245.47;5114487;23;20668;-85
2022/11/19 03:12:52;;;;;;;3.63;2.35;;;;;;;9.78;98.50;97248.06;5115072;23;20167;-85
2022/11/19 03:17:20;;;;;;;2.90;2.03;;;;;;;9.80;98.95;97261.78;5115091;23;20507;-85
2022/11/19 03:19:37;;;;;;;2.72;2.10;;;;;;;9.79;99.25;97254.09;5090101;23;20172;-85
2022/11/19 03:21:45;;;;;;;2.50;2.13;;;;;;;9.80;98.68;97255.75;5090249;23;20306;-85
2022/11/19 03:23:53;;;;;;;2.10;1.80;;;;;;;9.80;98.24;97256.59;5114165;23;20510;-85
2022/11/19 03:26:00;;;;;;;3.15;2.00;;;;;;;9.82;98.58;97253.84;5089352;23;20172;-85
2022/11/19 03:28:08;;;;;;;3.20;2.17;;;;;;;9.83;98.76;97256.34;5115920;23;20177;-85
2022/11/19 03:30:12;;;;;;;3.65;2.28;;;;;;;9.83;98.56;97256.34;5089444;23;20582;-85
2022/11/19 03:32:19;;;;;;;3.63;2.43;;;;;;;9.83;97.99;97261.56;5113910;23;20587;-85
2022/11/19 03:34:23;;;;;;;4.20;2.47;;;;;;;9.84;98.00;97262.41;5089765;23;21113;-85
2022/11/19 03:36:31;;;;;;;2.35;2.05;;;;;;;9.84;98.44;97263.22;5089107;23;20607;-85
2022/11/19 03:38:41;;;;;;;3.87;2.27;;;;;;;9.83;97.68;97261.56;5089630;23;20270;-85
2022/11/19 03:40:44;;;;;;;2.70;2.20;;;;;;;9.84;98.14;97265.81;5114063;23;20632;-86
2022/11/19 03:42:50;;;;;;;2.58;2.20;;;;;;;9.84;98.64;97265.00;5089361;23;20575;-85
2022/11/19 03:44:56;;;;;;;5.32;2.47;;;;;;;9.84;98.16;97264.03;5089472;23;20186;-86
2022/11/19 03:47:02;;;;;;;3.80;2.10;;;;;;;9.85;98.44;97270.91;5113977;23;20186;-85
2022/11/19 03:49:07;;;;;;;1.83;1.65;;;;;;;9.87;97.89;97276.00;5089566;23;20180;-86
2022/11/19 03:51:13;;;;;;;3.13;2.38;;;;;;;9.89;97.98;97266.28;5115838;23;20179;-86
2022/11/19 03:53:18;;;;;;;3.67;1.80;;;;;;;9.89;97.31;97267.13;5089110;23;20179;-85
2022/11/19 03:55:24;;;;;;;3.90;1.92;;;;;;;9.89;97.83;97269.72;5113793;23;20190;-86
2022/11/19 03:57:27;;;;;;;2.10;1.88;;;;;;;9.90;97.73;97271.38;5113931;23;20238;-86
2022/11/19 03:59:31;;;;;;;2.70;1.90;;;;;;;9.90;97.64;97286.19;5115610;22;20182;-85
2022/11/19 04:01:35;;;;;;;3.10;1.80;;;;;;;9.90;98.31;97281.78;5113699;23;20582;-86
2022/11/19 04:03:38;;;;;;;2.33;1.77;;;;;;;9.91;97.70;97283.44;5088984;23;20607;-86
2022/11/19 04:05:41;;;;;;;2.77;1.87;;;;;;;9.93;97.64;97288.53;5089172;23;20618;-86
2022/11/19 04:07:44;;;;;;;3.10;2.13;;;;;;;9.92;97.39;97281.66;5113769;23;20574;-86
2022/11/19 04:09:49;;;;;;;3.93;2.00;;;;;;;9.94;98.01;97285.03;5114197;23;21128;-86
2022/11/19 04:11:52;;;;;;;2.10;1.60;;;;;;;9.95;97.67;97281.44;5088904;23;20589;-86
2022/11/19 04:13:54;;;;;;;2.83;1.50;;;;;;;9.94;97.06;97280.63;5113843;23;20586;-86
2022/11/19 04:15:57;;;;;;;2.80;1.80;;;;;;;9.96;97.77;97293.53;5089085;23;20626;-86
2022/11/19 04:18:00;;;;;;;2.60;1.90;;;;;;;9.98;97.48;97289.88;5115315;23;20265;-86
2022/11/19 04:20:04;;;;;;;3.03;1.98;;;;;;;9.98;97.38;97284.66;5114067;23;20182;-86
2022/11/19 04:22:07;;;;;;;3.43;1.90;;;;;;;9.98;97.29;97282.06;5089322;23;20707;-86
2022/11/19 04:24:10;;;;;;;2.38;2.03;;;;;;;9.99;97.66;97283.69;5115177;23;20578;-85
2022/11/19 04:26:15;;;;;;;2.33;1.60;;;;;;;9.97;96.89;97279.56;5089154;23;20176;-86
2022/11/19 04:28:18;;;;;;;3.40;1.73;;;;;;;9.94;96.09;97280.63;5113984;23;20178;-86
2022/11/19 04:30:21;;;;;;;4.87;2.00;;;;;;;9.91;96.84;97285.25;5113917;23;20636;-85
2022/11/19 04:32:24;;;;;;;3.42;1.75;;;;;;;9.91;96.32;97280.84;5113708;23;20633;-86
2022/11/19 04:34:27;;;;;;;3.15;1.95;;;;;;;9.91;97.04;97275.63;5089031;23;20230;-86
2022/11/19 04:36:30;;;;;;;2.07;1.63;;;;;;;9.92;96.88;97272.09;5088871;23;20317;-86
2022/11/19 04:38:33;;;;;;;2.20;1.63;;;;;;;9.94;96.49;97279.81;5114257;23;21331;-86
2022/11/19 04:40:37;;;;;;;2.67;1.50;;;;;;;9.92;96.57;97277.31;5116986;23;20585;-86
2022/11/19 04:42:42;;;;;;;2.53;1.53;;;;;;;9.90;96.16;97273.97;5114848;23;20921;-85
2022/11/19 04:44:45;;;;;;;2.00;1.60;;;;;;;9.88;96.52;97278.47;5091208;23;20604;-86
2022/11/19 04:46:48;;;;;;;2.63;1.73;;;;;;;9.89;96.34;97274.94;5090565;23;20643;-86
2022/11/19 04:48:51;;;;;;;4.10;1.55;;;;;;;9.90;96.90;97283.56;5091064;23;20175;-86
2022/11/19 04:50:54;;;;;;;4.90;1.97;;;;;;;9.90;96.35;97283.56;5090931;23;20210;-86
2022/11/19 04:52:59;;;;;;;3.00;1.40;;;;;;;9.90;96.32;97281.78;5115151;23;20589;-86
2022/11/19 04:55:02;;;;;;;2.60;1.60;;;;;;;9.93;97.12;97285.94;5116956;23;20585;-86
2022/11/19 04:57:05;;;;;;;2.20;1.60;;;;;;;9.93;96.32;97280.72;5090444;23;20942;-86
2022/11/19 04:59:09;;;;;;;2.42;1.50;;;;;;;9.93;97.15;97281.56;5090941;23;20581;-86
2022/11/19 05:01:12;;;;;;;2.43;2.07;;;;;;;9.94;96.77;97287.63;5115511;23;20195;-86
2022/11/19 05:03:15;;;;;;;1.80;1.43;;;;;;;9.94;97.00;97283.25;5116408;23;20616;-85
2022/11/19 05:05:18;;;;;;;2.85;1.60;;;;;;;9.95;97.31;97287.50;5090568;23;20582;-86
2022/11/19 05:07:21;;;;;;;2.20;1.73;;;;;;;9.93;97.09;97284.19;5090834;23;20176;-86
2022/11/19 05:09:24;;;;;;;2.00;1.60;;;;;;;9.93;96.64;97275.50;5091219;23;20615;-86
2022/11/19 05:11:27;;;;;;;1.90;1.53;;;;;;;9.94;96.18;97287.63;5115728;23;21137;-86
2022/11/19 05:13:30;;;;;;;2.50;1.50;;;;;;;9.95;96.69;97290.13;5115749;23;20558;-86
2022/11/19 05:15:35;;;;;;;2.33;2.13;;;;;;;9.94;96.96;97280.63;5115841;23;20578;-86
2022/11/19 05:17:38;;;;;;;2.10;1.50;;;;;;;9.97;96.39;97284.78;5091374;23;20577;-86
2022/11/19 05:19:41;;;;;;;2.50;1.70;;;;;;;9.96;96.57;97283.94;5115843;23;20570;-86
2022/11/19 05:21:44;;;;;;;2.40;1.80;;;;;;;9.97;96.92;97280.41;5115200;23;20566;-86
2022/11/19 05:23:47;;;;;;;2.47;1.70;;;;;;;9.99;96.74;97288.91;5114924;23;20899;-85
2022/11/19 05:25:50;;;;;;;2.27;1.50;;;;;;;9.99;97.32;97288.91;5114898;23;20612;-86
2022/11/19 05:27:53;;;;;;;2.33;1.80;;;;;;;10.01;96.90;97286.19;5115078;23;20640;-86
2022/11/19 05:29:56;;;;;;;3.30;1.90;;;;;;;9.99;96.74;97280.28;5115006;23;20593;-86
2022/11/19 05:32:00;;;;;;;2.43;1.70;;;;;;;9.99;97.50;97281.09;5115094;23;20586;-85
2022/11/19 05:34:04;;;;;;;2.38;1.90;;;;;;;9.99;97.15;97283.69;5090548;23;20933;-86
2022/11/19 05:36:07;;;;;;;4.63;1.80;;;;;;;9.98;97.28;97281.22;5090045;23;20261;-86
2022/11/19 05:38:10;;;;;;;2.60;2.00;;;;;;;9.94;97.20;97280.63;5115287;23;21142;-86
2022/11/19 05:40:14;;;;;;;3.30;2.20;;;;;;;9.93;97.42;97284.19;5090228;23;20939;-86
2022/11/19 05:42:17;;;;;;;3.50;2.60;;;;;;;9.92;97.41;97277.31;5090639;23;21261;-86
2022/11/19 05:44:20;;;;;;;3.27;2.27;;;;;;;9.90;97.24;97287.00;5115213;23;20609;-85
2022/11/19 05:46:23;;;;;;;4.93;2.17;;;;;;;9.90;97.12;97289.59;5090904;23;20579;-86
2022/11/19 05:48:28;;;;;;;4.00;2.03;;;;;;;9.89;97.57;97281.91;5113594;23;20617;-86
2022/11/19 05:50:31;;;;;;;3.50;2.30;;;;;;;9.85;97.16;97278.72;5091201;23;20579;-86
2022/11/19 05:52:37;;;;;;;3.03;2.30;;;;;;;9.85;97.11;97277.91;5090477;23;20578;-86
2022/11/19 05:54:40;;;;;;;2.23;1.80;;;;;;;9.84;97.18;97283.22;5089928;23;20199;-86
2022/11/19 05:56:46;;;;;;;4.30;2.33;;;;;;;9.80;97.71;97287.81;5116722;23;20624;-86
2022/11/19 05:58:49;;;;;;;3.40;2.00;;;;;;;9.78;97.05;97283.72;5090628;23;21119;-86
2022/11/19 06:00:54;;;;;;;3.10;2.13;;;;;;;9.78;97.66;97294.13;5090681;23;21243;-86
2022/11/19 06:02:57;;;;;;;3.33;2.40;;;;;;;9.74;97.50;97287.50;5115342;23;20582;-86
2022/11/19 06:05:02;;;;;;;8.27;2.90;;;;;;;9.74;97.44;97295.28;5116008;23;20919;-85
2022/11/19 06:07:05;;;;;;;3.50;2.33;;;;;;;9.77;98.21;97292.47;5089893;23;20578;-85
2022/11/19 06:09:09;;;;;;;6.40;2.40;;;;;;;9.79;98.47;97300.97;5114652;23;20647;-86
2022/11/19 06:11:46;;;;;;;3.65;2.38;;;;;;;9.81;98.69;97296.50;5114433;23;20670;-86
2022/11/19 06:13:35;;;;;;;2.80;2.00;;;;;;;9.83;98.44;97300.59;5089446;23;20613;-85
2022/11/19 06:15:38;;;;;;;3.30;2.47;;;;;;;9.84;98.57;97298.84;5090533;23;20571;-86
2022/11/19 06:17:41;;;;;;;5.60;2.47;;;;;;;9.83;98.38;97307.59;5090294;23;20230;-85
2022/11/19 06:19:44;;;;;;;5.27;2.90;;;;;;;9.82;98.87;97301.56;5089785;23;20183;-86
2022/11/19 06:21:49;;;;;;;4.30;2.60;;;;;;;9.85;98.99;97306.56;5090288;23;20645;-86
2022/11/19 06:23:52;;;;;;;2.67;2.30;;;;;;;9.84;98.58;97303.09;5114495;23;20570;-85
2022/11/19 06:25:56;;;;;;;2.95;2.40;;;;;;;9.88;98.62;97314.13;5089786;23;20579;-85
2022/11/19 06:27:59;;;;;;;2.93;2.30;;;;;;;9.89;98.79;97308.78;5090203;23;20195;-86
2022/11/19 06:30:02;;;;;;;3.40;2.70;;;;;;;9.91;98.48;97312.09;5139052;23;20963;-86
2022/11/19 06:32:05;;;;;;;5.33;2.80;;;;;;;9.92;99.34;97312.91;5114826;23;20705;-86
2022/11/19 06:34:08;;;;;;;3.10;2.30;;;;;;;9.93;97.86;97318.03;5089997;23;20698;-86
2022/11/19 06:36:12;;;;;;;3.25;2.30;;;;;;;9.94;98.24;97318.88;5114449;23;20593;-86
2022/11/19 06:38:16;;;;;;;5.50;2.77;;;;;;;9.97;98.27;97319.47;5114657;23;20206;-85
2022/11/19 06:40:19;;;;;;;5.37;2.60;;;;;;;9.98;98.98;97323.75;5114091;23;20584;-86
2022/11/19 06:42:37;;;;;;;4.17;3.20;;;;;;;10.00;99.02;97326.22;5114191;23;20690;-86
2022/11/19 06:44:40;;;;;;;4.35;2.70;;;;;;;9.97;97.75;97329.88;5090064;23;20575;-85
2022/11/19 06:46:43;;;;;;;4.53;2.90;;;;;;;9.97;98.19;97329.88;5115867;23;20238;-86
2022/11/19 06:48:46;;;;;;;3.70;3.07;;;;;;;9.97;97.82;97321.25;5114698;23;20665;-86
2022/11/19 06:50:49;;;;;;;4.80;2.80;;;;;;;9.98;97.65;97328.09;5089640;23;20581;-85
2022/11/19 06:52:52;;;;;;;4.80;2.67;;;;;;;9.94;98.23;97327.53;5114132;23;20762;-86
2022/11/19 06:54:57;;;;;;;5.05;2.63;;;;;;;9.96;98.06;97333.44;5114300;23;20186;-86
2022/11/19 06:57:00;;;;;;;4.60;2.90;;;;;;;9.97;97.95;97342.09;5114209;23;20214;-86
2022/11/19 06:59:03;;;;;;;5.47;3.13;;;;;;;9.99;97.80;97341.00;5114233;23;20567;-86
2022/11/19 07:01:06;;;;;;;3.57;2.73;;;;;;;10.00;98.13;97341.84;5113894;23;21190;-86
2022/11/19 07:03:09;;;;;;;6.80;4.07;;;;;;;10.02;97.49;97340.75;5089676;23;20613;-86
2022/11/19 07:05:12;;;;;;;3.07;2.63;;;;;;;10.03;97.51;97337.22;5114592;23;20633;-86
2022/11/19 07:07:15;;;;;;;3.97;2.50;;;;;;;10.04;97.81;97348.47;5114354;23;20624;-86
2022/11/19 07:09:18;;;;;;;5.15;2.70;;;;;;;10.05;97.43;97344.91;5090161;23;20176;-86
2022/11/19 07:11:25;;;;;;;3.80;2.97;;;;;;;10.04;98.48;97340.66;5089937;23;20206;-86
2022/11/19 07:13:56;;;;;;;2.78;2.53;;;;;;;10.05;97.24;97342.31;5116369;23;20546;-86
2022/11/19 07:15:52;;;;;;;3.90;2.58;;;;;;;10.03;97.87;97346.81;5090373;23;20171;-86
2022/11/19 07:17:55;;;;;;;6.55;2.85;;;;;;;10.03;98.37;97346.81;5115369;23;20214;-86
2022/11/19 07:19:58;;;;;;;12.93;2.80;;;;;;;10.02;97.51;97352.97;5090699;23;20211;-86
2022/11/19 07:22:01;;;;;;;2.88;2.53;;;;;;;10.01;97.45;97353.91;5090428;23;20617;-85
2022/11/19 07:24:07;;;;;;;3.73;2.73;;;;;;;10.03;98.02;97358.06;5114125;23;20178;-86
2022/11/19 07:26:10;;;;;;;3.58;2.67;;;;;;;10.03;97.78;97358.06;5113789;23;21098;-86
2022/11/19 07:28:14;;;;;;;2.65;2.38;;;;;;;10.05;97.65;97360.53;5114582;23;20175;-86
2022/11/19 07:30:18;;;;;;;4.50;2.87;;;;;;;10.05;98.13;97361.38;5089887;23;20214;-86
2022/11/19 07:32:21;;;;;;;5.68;3.40;;;;;;;10.08;98.58;97361.13;5089287;23;20582;-86
2022/11/19 07:34:24;;;;;;;5.18;2.88;;;;;;;10.08;97.55;97368.13;5090061;23;20176;-86
2022/11/19 07:36:27;;;;;;;3.42;2.90;;;;;;;10.06;97.24;97363.03;5114640;23;20178;-86
2022/11/19 07:38:30;;;;;;;3.97;3.33;;;;;;;10.04;97.48;97359.72;5115088;23;20214;-85
2022/11/19 07:40:39;;;;;;;3.00;2.40;;;;;;;10.01;97.49;97370.38;5114599;23;20170;-86
2022/11/19 07:42:50;;;;;;;4.30;2.70;;;;;;;10.01;97.24;97370.38;5113779;23;20638;-86
2022/11/19 07:44:55;;;;;;;2.60;2.30;;;;;;;10.03;98.06;97376.28;5090637;23;21141;-86
2022/11/19 07:46:58;;;;;;;3.20;2.50;;;;;;;10.06;96.95;97375.25;5114201;23;20210;-86
2022/11/19 07:49:01;;;;;;;3.25;2.70;;;;;;;10.05;97.74;97377.00;5089638;23;20653;-86
2022/11/19 07:51:04;;;;;;;3.45;2.63;;;;;;;10.05;97.90;97382.19;5114396;23;20175;-86
2022/11/19 07:53:07;;;;;;;4.40;2.50;;;;;;;10.00;97.36;97379.13;5089359;23;20210;-85
2022/11/19 07:55:10;;;;;;;2.47;2.27;;;;;;;10.03;97.30;97384.09;5114116;23;20618;-86
2022/11/19 07:57:13;;;;;;;3.75;2.50;;;;;;;10.05;97.92;97386.59;5089512;23;20598;-86
2022/11/19 07:59:17;;;;;;;3.43;2.53;;;;;;;10.06;97.56;97389.09;5115847;23;20665;-86
2022/11/19 08:01:23;;;;;;;4.10;2.53;;;;;;;10.10;98.48;97387.91;5089428;23;20928;-86
2022/11/19 08:03:26;;;;;;;4.23;2.90;;;;;;;10.12;98.20;97386.00;5113540;23;20598;-86
2022/11/19 08:05:29;;;;;;;3.80;2.60;;;;;;;10.13;97.88;97389.44;5089261;23;20579;-86
2022/11/19 08:07:32;;;;;;;3.80;2.90;;;;;;;10.11;97.59;97384.34;5114012;23;21185;-86
2022/11/19 08:09:35;;;;;;;3.42;2.70;;;;;;;10.13;98.01;97384.22;5113858;23;20181;-85
2022/11/19 08:11:39;;;;;;;3.60;3.10;;;;;;;10.15;98.39;97395.34;5114480;23;20193;-86
2022/11/19 08:13:42;;;;;;;4.03;3.17;;;;;;;10.18;97.08;97392.50;5114410;23;20584;-86
2022/11/19 08:15:46;;;;;;;3.90;3.00;;;;;;;10.22;96.97;97394.75;5090046;23;21128;-86
2022/11/19 08:20:11;;;;;;;4.90;3.40;;;;;;;10.27;97.65;97387.41;5140286;23;20588;-85
2022/11/19 08:22:14;;;;;;;4.57;3.30;;;;;;;10.28;96.96;97383.84;5089729;23;20590;-85
2022/11/19 08:24:19;;;;;;;5.33;3.40;;;;;;;10.30;96.95;97389.78;5114435;23;20600;-85
2022/11/19 08:26:22;;;;;;;4.70;3.47;;;;;;;10.32;97.52;97390.47;5088657;23;21420;-86
2022/11/19 08:28:25;;;;;;;6.27;3.27;;;;;;;10.35;97.64;97390.25;5114207;23;20588;-86
2022/11/19 08:30:29;;;;;;;3.57;3.10;;;;;;;10.36;97.63;97390.13;5138910;23;21125;-86
2022/11/19 08:32:32;;;;;;;5.13;3.55;;;;;;;10.41;96.51;97390.56;5089358;23;20583;-86
2022/11/19 08:34:37;;;;;;;5.50;3.60;;;;;;;10.46;96.74;97396.28;5113682;23;20175;-85
2022/11/19 08:36:40;;;;;;;4.40;3.40;;;;;;;10.51;97.33;97395.91;5089401;23;21142;-85
2022/11/19 08:38:43;;;;;;;5.43;3.60;;;;;;;10.54;97.64;97406.06;5089286;23;21210;-86
2022/11/19 08:40:51;;;;;;;4.10;3.63;;;;;;;10.57;96.22;97408.44;5115225;23;20573;-86
2022/11/19 08:42:59;;;;;;;4.80;3.40;;;;;;;10.58;96.95;97410.09;5115333;23;20613;-86
2022/11/19 08:45:02;;;;;;;4.40;3.75;;;;;;;10.62;97.48;97414.13;5089635;23;20905;-85
2022/11/19 08:47:05;;;;;;;5.20;3.60;;;;;;;10.60;95.66;97418.63;5113917;23;20179;-86
2022/11/19 08:49:08;;;;;;;4.10;3.40;;;;;;;10.59;97.46;97423.03;5089243;23;20629;-86
2022/11/19 08:51:13;;;;;;;3.80;3.40;;;;;;;10.61;96.77;97428.94;5115820;23;20988;-85
2022/11/19 08:53:16;;;;;;;5.90;3.80;;;;;;;10.62;95.56;97419.34;5114104;23;21118;-86
2022/11/19 08:55:19;;;;;;;5.33;3.53;;;;;;;10.62;96.63;97419.34;5089000;23;20977;-86
2022/11/19 08:57:23;;;;;;;5.27;3.50;;;;;;;10.62;97.13;97425.38;5113567;23;20925;-86
2022/11/19 08:59:26;;;;;;;4.80;4.27;;;;;;;10.65;95.88;97434.75;5115227;23;20602;-86
2022/11/19 09:01:29;;;;;;;4.97;4.03;;;;;;;10.69;96.16;97426.56;5089418;23;20579;-85
2022/11/19 09:03:32;;;;;;;5.07;4.10;;;;;;;10.74;96.70;97434.03;5113377;23;20202;-86
2022/11/19 09:05:36;;;;;;;6.53;4.17;;;;;;;10.78;95.76;97430.22;5089320;23;20582;-86
2022/11/19 09:07:40;;;;;;;6.57;4.60;;;;;;;10.79;95.90;97435.31;5113847;23;21190;-85
2022/11/19 09:09:43;;;;;;;4.40;3.50;;;;;;;10.79;96.41;97434.50;5089826;23;20595;-86
2022/11/19 09:11:46;;;;;;;5.07;4.57;;;;;;;10.80;95.60;97440.41;5114467;23;20579;-86
2022/11/19 09:13:49;;;;;;;4.27;3.87;;;;;;;10.83;95.37;97445.38;5114456;23;20569;-86
2022/11/19 09:15:53;;;;;;;4.73;3.90;;;;;;;10.85;94.26;97440.03;5089736;23;20575;-86
2022/11/19 09:17:56;;;;;;;5.43;3.90;;;;;;;10.87;93.56;97441.56;5114579;23;20988;-86
2022/11/19 09:19:59;;;;;;;5.10;4.13;;;;;;;10.90;93.73;97441.34;5114818;23;20582;-86
2022/11/19 09:22:02;;;;;;;10.20;5.87;;;;;;;10.90;93.49;97446.56;5090244;23;20583;-86
2022/11/19 09:24:07;;;;;;;6.73;4.47;;;;;;;10.91;93.73;97442.16;5089658;23;20670;-86
2022/11/19 09:26:25;;;;;;;4.57;4.10;;;;;;;10.83;93.03;97447.97;5093722;23;20904;-86
2022/11/19 09:28:29;;;;;;;4.60;3.83;;;;;;;10.85;93.71;97446.09;5115310;23;20900;-86
2022/11/19 09:30:32;;;;;;;5.70;4.17;;;;;;;10.82;93.48;97443.72;5090429;23;20578;-86
2022/11/19 09:32:35;;;;;;;5.60;4.23;;;;;;;10.86;93.35;97454.75;5114963;23;20969;-86
2022/11/19 09:34:40;;;;;;;4.07;3.67;;;;;;;10.92;93.99;97455.06;5090995;23;20591;-86
2022/11/19 09:36:43;;;;;;;5.28;4.18;;;;;;;10.99;92.98;97456.25;5090673;23;20578;-85
2022/11/19 09:38:46;;;;;;;4.80;4.03;;;;;;;11.05;92.21;97460.13;5115200;23;20226;-86
2022/11/19 09:40:53;;;;;;;4.70;3.70;;;;;;;11.09;94.13;97462.38;5116468;23;21133;-86
2022/11/19 09:43:05;;;;;;;6.80;3.93;;;;;;;11.08;92.34;97452.06;5090139;23;20579;-86
2022/11/19 09:45:18;;;;;;;7.30;3.77;;;;;;;11.08;93.67;97452.91;5115182;23;21320;-85
2022/11/19 09:47:29;;;;;;;5.10;3.97;;;;;;;11.08;94.04;97455.53;5090777;23;20685;-86
2022/11/19 09:49:37;;;;;;;6.10;4.17;;;;;;;11.06;92.29;97452.19;5090643;23;20575;-85
2022/11/19 09:51:43;;;;;;;5.33;3.83;;;;;;;11.06;92.76;97453.97;5090199;23;20598;-86
2022/11/19 09:53:51;;;;;;;6.23;4.63;;;;;;;11.04;93.00;97453.28;5090090;23;20613;-86
2022/11/19 09:55:56;;;;;;;4.60;3.90;;;;;;;11.03;92.56;97457.66;5115061;23;20581;-86
2022/11/19 09:58:00;;;;;;;5.90;4.90;;;;;;;11.03;92.54;97454.22;5090651;23;21149;-86
2022/11/19 10:00:06;;;;;;;4.97;4.40;;;;;;;11.04;92.57;97450.66;5090588;23;20630;-86
2022/11/19 10:02:17;;;;;;;5.73;4.23;;;;;;;11.02;93.12;97448.19;5114798;23;20582;-86
2022/11/19 10:04:23;;;;;;;6.23;4.40;;;;;;;11.02;92.03;97450.78;5090037;23;20614;-86
2022/11/19 10:06:29;;;;;;;4.73;3.80;;;;;;;11.07;93.44;97448.63;5114888;23;20609;-86